8NC3 weather

Winding Creek Airport
Sneads Ferry, North Carolina, United States

Public forecast

Using degrees Fahrenheit for public forecast. Weather courtesy of forecast.io.

Closest aviation weather report (METAR) to Winding Creek Airport

Closest report is New River MCAS /H/ /Mccutcheon Fld/ Airport, 8.5 nm (15.8 km) N. Retrieved 2020/01/26 03:56 UTC (56 minutes ago):

KNCA 260356Z AUTO 27006KT 10SM CLR 07/04 A2997 RMK AO2 SLP149 T00670039

Closest aviation forecast (TAF) to Winding Creek Airport

Forecast is more than 12 hours old.

Closest forecast is New River MCAS /H/ /Mccutcheon Fld/ Airport, 8.5 nm (15.8 km) N. Retrieved 2014/12/02 09:26 UTC (5 years ago):

TAF KNCA 020900Z 0209/0309 VRB06KT 2400 BR SCT002 QNH3032INS TEMPO 0209/0213 0400 FG VV002 BECMG 0213/0215 05007KT 9999 SCT007 BKN015 QNH3036INS FM030200 VRB03KT 2400 BR BKN007 QNH3034INS T09/0211Z T16/0219Z